Time;durP1;ratioP1;P1;durP2;ratioP2;P2;SDS_P1;SDS_P2;PMS_P1;PMS_P2;Temp;Humidity;BMP_temperature;BMP_pressure;BME280_temperature;BME280_humidity;BME280_pressure;Samples;Min_cycle;Max_cycle;Signal;HPM_P1;HPM_P2
2023/06/28 00:01:00;;;;;;;5.80;5.13;;;15.70;99.90;;;;;;5073615;28;20174;-71
2023/06/28 00:03:27;;;;;;;6.47;5.70;;;15.70;99.90;;;;;;5072923;28;20205;-71
2023/06/28 00:05:52;;;;;;;7.13;6.13;;;15.70;99.90;;;;;;5072433;28;20197;-70
2023/06/28 00:08:18;;;;;;;5.47;5.03;;;15.70;99.90;;;;;;5074021;28;20174;-70
2023/06/28 00:10:44;;;;;;;8.43;5.43;;;15.80;99.90;;;;;;5073580;28;20163;-71
2023/06/28 00:13:10;;;;;;;11.57;6.20;;;15.80;99.90;;;;;;5073351;28;20250;-71
2023/06/28 00:15:35;;;;;;;10.03;5.57;;;15.80;99.90;;;;;;5073553;28;20197;-71
2023/06/28 00:18:02;;;;;;;8.23;5.27;;;15.80;99.90;;;;;;5072738;28;20186;-71
2023/06/28 00:20:28;;;;;;;6.07;5.47;;;15.90;99.90;;;;;;5073537;28;20182;-71
2023/06/28 00:22:54;;;;;;;7.20;5.83;;;15.90;99.90;;;;;;5073177;28;20293;-70
2023/06/28 00:25:20;;;;;;;5.63;5.20;;;16.00;99.90;;;;;;5072203;28;20692;-71
2023/06/28 00:27:46;;;;;;;5.47;5.00;;;16.00;99.90;;;;;;5073490;28;20170;-70
2023/06/28 00:30:13;;;;;;;7.23;5.60;;;16.00;99.90;;;;;;5073224;28;20177;-71
2023/06/28 00:32:39;;;;;;;7.13;5.30;;;16.00;99.90;;;;;;5072304;28;20208;-71
2023/06/28 00:35:08;;;;;;;6.50;5.90;;;16.00;99.90;;;;;;5073391;28;20539;-71
2023/06/28 00:37:33;;;;;;;6.07;5.47;;;15.90;99.90;;;;;;5073674;28;20171;-71
2023/06/28 00:40:00;;;;;;;8.90;6.07;;;15.90;99.90;;;;;;5072542;28;20181;-71
2023/06/28 00:42:25;;;;;;;6.73;6.07;;;15.90;99.90;;;;;;5072245;28;20197;-71
2023/06/28 00:44:51;;;;;;;10.40;5.13;;;15.90;99.90;;;;;;5071073;28;20550;-71
2023/06/28 00:47:18;;;;;;;6.40;5.80;;;15.80;99.90;;;;;;5072963;28;20220;-71
2023/06/28 00:49:45;;;;;;;6.77;6.10;;;15.70;99.90;;;;;;5073134;28;20260;-70
2023/06/28 00:52:12;;;;;;;7.57;5.80;;;15.80;99.90;;;;;;5073082;28;20186;-70
2023/06/28 00:54:39;;;;;;;6.03;5.63;;;15.80;99.90;;;;;;5071689;28;20178;-70
2023/06/28 00:57:05;;;;;;;7.63;5.77;;;15.80;99.90;;;;;;5072027;28;20171;-70
2023/06/28 00:59:31;;;;;;;6.13;5.43;;;15.80;99.90;;;;;;5073119;28;20579;-70
2023/06/28 01:01:57;;;;;;;6.23;5.20;;;15.90;99.90;;;;;;5072822;28;20198;-70
2023/06/28 01:04:23;;;;;;;8.00;5.20;;;15.90;99.90;;;;;;5070890;28;20202;-70
2023/06/28 01:06:54;;;;;;;5.40;5.00;;;15.90;99.90;;;;;;5072697;28;20197;-70
2023/06/28 01:09:24;;;;;;;5.60;5.07;;;15.90;99.90;;;;;;5072853;28;20174;-71
2023/06/28 01:11:52;;;;;;;5.73;5.03;;;15.90;99.90;;;;;;5072443;28;20260;-71
2023/06/28 01:14:19;;;;;;;5.83;5.17;;;15.90;99.90;;;;;;5056721;28;20186;-71
2023/06/28 01:16:54;;;;;;;5.87;5.27;;;15.90;99.90;;;;;;5052315;28;20254;-70
2023/06/28 01:19:25;;;;;;;6.97;5.63;;;15.90;99.90;;;;;;5052671;28;20515;-70
2023/06/28 01:21:55;;;;;;;8.50;5.50;;;15.90;99.90;;;;;;5052199;28;20612;-71
2023/06/28 01:24:21;;;;;;;6.57;5.63;;;15.90;99.90;;;;;;5051921;28;20197;-70
2023/06/28 01:26:52;;;;;;;7.00;5.00;;;15.90;99.90;;;;;;5051923;28;20240;-69
2023/06/28 01:29:21;;;;;;;5.30;4.90;;;15.90;99.90;;;;;;5051067;28;20175;-70
2023/06/28 01:31:55;;;;;;;6.17;5.57;;;15.80;99.90;;;;;;5050711;28;20191;-70
2023/06/28 01:34:22;;;;;;;6.97;5.90;;;15.80;99.90;;;;;;5050717;28;20232;-70
2023/06/28 01:36:49;;;;;;;7.77;6.10;;;15.80;99.90;;;;;;5050074;28;20192;-72
2023/06/28 01:39:17;;;;;;;6.13;5.63;;;15.70;99.90;;;;;;5050837;28;20179;-71
2023/06/28 01:41:44;;;;;;;6.33;5.83;;;15.70;99.90;;;;;;5069048;28;20300;-70
2023/06/28 01:44:10;;;;;;;5.83;5.33;;;15.70;99.90;;;;;;5072362;28;20285;-70
2023/06/28 01:46:36;;;;;;;5.87;5.47;;;15.70;99.90;;;;;;5072096;28;20311;-71
2023/06/28 01:49:02;;;;;;;5.90;5.40;;;15.80;99.90;;;;;;5071931;28;20178;-70
2023/06/28 01:51:28;;;;;;;6.70;5.90;;;15.80;99.90;;;;;;5072289;28;20186;-70
2023/06/28 01:53:54;;;;;;;6.00;5.40;;;15.80;99.90;;;;;;5070780;28;20261;-69
2023/06/28 01:56:19;;;;;;;6.20;5.60;;;15.80;99.90;;;;;;5070677;28;20656;-69
2023/06/28 01:58:45;;;;;;;6.20;5.60;;;15.80;99.90;;;;;;5071702;28;20891;-69
2023/06/28 02:01:10;;;;;;;6.00;5.47;;;15.80;99.90;;;;;;5071590;28;20645;-69
2023/06/28 02:03:36;;;;;;;5.77;5.37;;;15.70;99.90;;;;;;5071020;28;20206;-69
2023/06/28 02:06:02;;;;;;;9.03;5.93;;;15.70;99.90;;;;;;5070169;28;20261;-69
2023/06/28 02:08:27;;;;;;;6.50;5.73;;;15.70;99.90;;;;;;5059014;28;20179;-69
2023/06/28 02:10:53;;;;;;;6.20;5.60;;;15.70;99.90;;;;;;5059862;28;20182;-69
2023/06/28 02:13:18;;;;;;;8.17;6.07;;;15.70;99.90;;;;;;5069595;28;20220;-69
2023/06/28 02:15:44;;;;;;;6.77;6.27;;;15.70;99.90;;;;;;5051468;28;20258;-69
2023/06/28 02:18:10;;;;;;;7.07;6.47;;;15.70;99.90;;;;;;5051609;28;20171;-69
2023/06/28 02:20:35;;;;;;;8.83;6.30;;;15.60;99.90;;;;;;5051564;28;20170;-70
2023/06/28 02:23:01;;;;;;;9.63;6.83;;;15.60;99.90;;;;;;5050992;28;20755;-69
2023/06/28 02:25:27;;;;;;;9.47;6.43;;;15.60;99.90;;;;;;5051390;28;20163;-70
2023/06/28 02:27:52;;;;;;;6.80;5.43;;;15.70;99.90;;;;;;5050003;28;20647;-70
2023/06/28 02:30:18;;;;;;;6.97;6.27;;;15.70;99.90;;;;;;5051339;28;20175;-70
2023/06/28 02:32:44;;;;;;;9.97;5.50;;;15.70;99.90;;;;;;5051156;28;20195;-70
2023/06/28 02:35:09;;;;;;;6.77;5.80;;;15.70;99.90;;;;;;5051469;28;20711;-70
2023/06/28 02:37:35;;;;;;;6.57;5.97;;;15.70;99.90;;;;;;5051214;28;20167;-70
2023/06/28 02:40:02;;;;;;;8.97;6.17;;;15.80;99.90;;;;;;5049973;28;20181;-70
2023/06/28 02:42:28;;;;;;;6.47;5.90;;;15.80;99.90;;;;;;5049575;28;20281;-70
2023/06/28 02:44:53;;;;;;;6.47;5.97;;;15.90;99.90;;;;;;5049879;28;20688;-70
2023/06/28 02:47:19;;;;;;;7.07;6.37;;;16.00;99.90;;;;;;5051443;28;20166;-74
2023/06/28 02:49:45;;;;;;;8.90;5.87;;;15.90;99.90;;;;;;5053433;28;20213;-75
2023/06/28 02:52:11;;;;;;;6.73;6.13;;;16.00;99.90;;;;;;5053939;28;20190;-74
2023/06/28 02:54:37;;;;;;;6.87;6.30;;;16.00;99.90;;;;;;5052900;28;20250;-75
2023/06/28 02:57:03;;;;;;;6.47;6.03;;;16.10;99.90;;;;;;5053669;28;20203;-75
2023/06/28 02:59:28;;;;;;;11.27;6.00;;;16.10;99.90;;;;;;5053683;28;20236;-73
2023/06/28 03:01:54;;;;;;;7.53;6.83;;;16.10;99.90;;;;;;5053258;28;20673;-74
2023/06/28 03:04:20;;;;;;;7.80;6.03;;;16.10;99.90;;;;;;5053021;28;20206;-73
2023/06/28 03:06:52;;;;;;;7.13;6.43;;;16.10;99.90;;;;;;5056523;28;20167;-78
2023/06/28 03:09:17;;;;;;;7.23;6.47;;;16.00;99.90;;;;;;5057473;28;20589;-74
2023/06/28 03:11:43;;;;;;;9.77;5.90;;;16.00;99.90;;;;;;5057190;28;20199;-72
2023/06/28 03:14:09;;;;;;;7.83;5.67;;;16.00;99.90;;;;;;5057211;28;20642;-72
2023/06/28 03:16:34;;;;;;;7.50;5.87;;;16.00;99.90;;;;;;5055008;28;20190;-76
2023/06/28 03:19:00;;;;;;;6.30;5.77;;;16.00;99.90;;;;;;5055985;28;20178;-74
2023/06/28 03:21:26;;;;;;;6.93;5.50;;;16.10;99.90;;;;;;5057152;28;20198;-73
2023/06/28 03:23:51;;;;;;;8.97;5.93;;;16.00;99.90;;;;;;5055092;28;20697;-72
2023/06/28 03:26:17;;;;;;;6.77;6.00;;;16.00;99.90;;;;;;5057224;28;20217;-73
2023/06/28 03:28:42;;;;;;;7.37;5.73;;;16.10;99.90;;;;;;5056980;28;20171;-75
2023/06/28 03:31:08;;;;;;;8.47;5.70;;;16.10;99.90;;;;;;5055677;28;20206;-73
2023/06/28 03:33:34;;;;;;;6.43;5.50;;;16.20;99.90;;;;;;5055574;28;20657;-74
2023/06/28 03:35:59;;;;;;;6.37;5.80;;;16.30;99.90;;;;;;5055798;28;20174;-75
2023/06/28 03:38:25;;;;;;;5.87;5.37;;;16.30;99.90;;;;;;5055767;28;20256;-75
2023/06/28 03:40:50;;;;;;;6.07;5.53;;;16.40;99.90;;;;;;5057419;28;20171;-73
2023/06/28 03:43:16;;;;;;;9.33;6.07;;;16.50;99.90;;;;;;5053779;28;20206;-74
2023/06/28 03:45:42;;;;;;;7.00;5.00;;;16.50;99.90;;;;;;5055052;28;20167;-73
2023/06/28 03:48:07;;;;;;;5.50;5.10;;;16.50;99.90;;;;;;5057207;28;20226;-77
2023/06/28 03:50:33;;;;;;;5.97;5.47;;;16.60;99.90;;;;;;5052271;28;20269;-71
2023/06/28 03:52:58;;;;;;;10.10;5.70;;;16.70;99.90;;;;;;5053813;28;20205;-70
2023/06/28 03:55:24;;;;;;;6.10;5.50;;;16.60;99.90;;;;;;5054170;28;20191;-70
2023/06/28 03:57:50;;;;;;;6.10;5.70;;;16.70;99.90;;;;;;5053797;28;20201;-71
2023/06/28 04:00:16;;;;;;;5.93;5.43;;;16.60;99.90;;;;;;5054046;28;20179;-71
2023/06/28 04:02:41;;;;;;;6.47;5.83;;;16.70;99.90;;;;;;5053377;28;20222;-71
2023/06/28 04:05:07;;;;;;;8.63;6.27;;;16.70;99.90;;;;;;5053794;28;20650;-71
2023/06/28 04:07:32;;;;;;;9.43;5.83;;;16.70;99.90;;;;;;5053868;28;20246;-71
2023/06/28 04:09:59;;;;;;;6.60;5.90;;;16.70;99.90;;;;;;5053868;28;20590;-71
2023/06/28 04:12:24;;;;;;;5.83;5.43;;;16.80;99.90;;;;;;5052153;28;20226;-71
2023/06/28 04:14:50;;;;;;;11.27;5.47;;;16.80;99.90;;;;;;5053691;28;20593;-70
2023/06/28 04:17:16;;;;;;;7.30;5.47;;;16.80;99.90;;;;;;5052955;28;20170;-71
2023/06/28 04:19:43;;;;;;;6.77;5.93;;;16.80;99.90;;;;;;5053403;28;20198;-71
2023/06/28 04:22:08;;;;;;;5.93;5.00;;;16.80;99.90;;;;;;5056360;28;20209;-70
2023/06/28 04:24:34;;;;;;;7.43;5.10;;;16.80;99.90;;;;;;5073086;28;20205;-71
2023/06/28 04:27:00;;;;;;;5.60;5.10;;;16.70;99.90;;;;;;5072293;28;20174;-71
2023/06/28 04:29:28;;;;;;;5.20;4.77;;;16.70;99.90;;;;;;5073465;28;20170;-71
2023/06/28 04:31:59;;;;;;;6.03;5.03;;;16.60;99.90;;;;;;5073148;28;20269;-70
2023/06/28 04:34:24;;;;;;;5.40;4.80;;;16.60;99.90;;;;;;5073114;28;20649;-71
2023/06/28 04:36:52;;;;;;;7.97;5.70;;;16.60;99.90;;;;;;5073178;28;20216;-71
2023/06/28 04:39:18;;;;;;;8.87;6.60;;;16.70;99.90;;;;;;5073302;28;20170;-71
2023/06/28 04:41:45;;;;;;;6.07;5.23;;;16.70;99.90;;;;;;5073300;28;20246;-71
2023/06/28 04:44:10;;;;;;;7.83;5.60;;;16.80;99.90;;;;;;5072823;28;20243;-70
2023/06/28 04:46:36;;;;;;;6.00;5.40;;;16.80;99.90;;;;;;5072971;28;20208;-71
2023/06/28 04:49:02;;;;;;;8.83;6.00;;;16.80;99.90;;;;;;5073400;28;20190;-71
2023/06/28 04:51:29;;;;;;;5.60;5.20;;;16.80;99.90;;;;;;5073021;28;20190;-72
2023/06/28 04:53:55;;;;;;;8.33;5.60;;;16.80;99.90;;;;;;5061893;28;20202;-71
2023/06/28 04:56:20;;;;;;;5.70;5.30;;;16.90;99.90;;;;;;5065310;28;20263;-70
2023/06/28 04:58:46;;;;;;;5.60;5.20;;;16.90;99.90;;;;;;5071443;28;20645;-71
2023/06/28 05:01:11;;;;;;;5.77;5.27;;;16.80;99.90;;;;;;5059880;28;20756;-71
2023/06/28 05:03:40;;;;;;;7.30;5.97;;;16.70;99.90;;;;;;5052962;28;20238;-70
2023/06/28 05:06:06;;;;;;;6.03;4.47;;;16.70;99.90;;;;;;5051483;28;20171;-71
2023/06/28 05:08:34;;;;;;;4.97;4.60;;;16.80;99.90;;;;;;5052606;28;20181;-71
2023/06/28 05:11:01;;;;;;;7.53;4.93;;;16.90;99.90;;;;;;5052643;28;20203;-71
2023/06/28 05:13:26;;;;;;;6.30;5.90;;;17.10;99.90;;;;;;5052265;28;20171;-71
2023/06/28 05:15:52;;;;;;;5.13;4.67;;;17.20;99.90;;;;;;5052587;28;20224;-72
2023/06/28 05:18:18;;;;;;;7.10;4.50;;;17.30;99.90;;;;;;5052422;28;20183;-70
2023/06/28 05:20:44;;;;;;;6.20;4.23;;;17.20;99.90;;;;;;5054460;28;20711;-71
2023/06/28 05:23:12;;;;;;;8.77;4.67;;;17.30;99.90;;;;;;5072140;28;20201;-70
2023/06/28 05:25:42;;;;;;;8.37;5.10;;;17.40;99.90;;;;;;5072285;28;20567;-71
2023/06/28 05:28:09;;;;;;;5.40;4.90;;;17.40;99.90;;;;;;5071004;28;20182;-71
2023/06/28 05:30:35;;;;;;;5.53;5.03;;;17.50;99.90;;;;;;5071552;28;20192;-71
2023/06/28 05:33:02;;;;;;;6.17;5.77;;;17.60;99.90;;;;;;5071742;28;20602;-71
2023/06/28 05:35:30;;;;;;;6.17;5.57;;;17.80;99.90;;;;;;5072298;28;20174;-71
2023/06/28 05:37:55;;;;;;;6.83;6.03;;;17.90;99.90;;;;;;5072091;28;20182;-71
2023/06/28 05:40:21;;;;;;;9.07;7.27;;;18.00;99.90;;;;;;5072213;28;20223;-71
2023/06/28 05:42:46;;;;;;;6.63;6.17;;;18.20;99.90;;;;;;5070250;28;20198;-71
2023/06/28 05:45:12;;;;;;;1999.90;999.90;;;18.30;99.90;;;;;;5072187;28;20167;-71
2023/06/28 05:47:37;;;;;;;1999.90;999.90;;;18.30;99.90;;;;;;5072059;28;20629;-71
2023/06/28 05:50:03;;;;;;;93.47;39.07;;;18.30;99.90;;;;;;5070646;28;20166;-70
2023/06/28 05:52:29;;;;;;;217.00;81.17;;;18.20;99.90;;;;;;5071486;28;20201;-71
2023/06/28 05:54:54;;;;;;;14.93;13.60;;;18.20;99.90;;;;;;5071559;28;20181;-70
2023/06/28 05:57:20;;;;;;;8.93;8.53;;;18.20;99.90;;;;;;5071733;28;20181;-71
2023/06/28 05:59:45;;;;;;;1999.90;999.90;;;18.20;99.90;;;;;;5071943;28;20170;-70
2023/06/28 06:02:11;;;;;;;8.43;6.27;;;18.20;99.90;;;;;;5056233;28;20658;-71
2023/06/28 06:04:36;;;;;;;8.57;6.77;;;18.30;99.90;;;;;;5050218;28;20202;-72
2023/06/28 06:07:02;;;;;;;7.73;6.77;;;18.20;99.90;;;;;;5051668;28;20169;-71
2023/06/28 06:09:29;;;;;;;5.60;5.17;;;18.20;99.90;;;;;;5051702;28;20167;-71
2023/06/28 06:11:54;;;;;;;5.73;5.10;;;18.00;99.90;;;;;;5051218;28;20187;-71
2023/06/28 06:14:20;;;;;;;7.67;5.20;;;17.90;99.90;;;;;;5051353;28;20178;-71
2023/06/28 06:16:46;;;;;;;6.43;4.60;;;17.90;99.90;;;;;;5059928;28;20173;-71
2023/06/28 06:19:11;;;;;;;6.00;5.50;;;17.80;99.90;;;;;;5071626;28;20645;-71
2023/06/28 06:21:37;;;;;;;6.00;5.40;;;17.80;99.90;;;;;;5071264;28;20764;-71
2023/06/28 06:24:07;;;;;;;8.57;5.60;;;17.80;99.90;;;;;;5064674;28;20213;-71
2023/06/28 06:26:33;;;;;;;8.83;5.03;;;17.80;99.90;;;;;;5051359;28;20246;-71
2023/06/28 06:28:59;;;;;;;5.53;4.73;;;17.80;99.90;;;;;;5051450;28;20223;-71
2023/06/28 06:31:25;;;;;;;5.97;5.50;;;17.90;99.90;;;;;;5051314;28;20724;-71
2023/06/28 06:33:50;;;;;;;7.30;5.27;;;17.90;99.90;;;;;;5050784;28;20174;-71
2023/06/28 06:36:16;;;;;;;4.97;4.53;;;18.00;99.90;;;;;;5051325;28;20167;-71
2023/06/28 06:38:41;;;;;;;10.60;6.10;;;18.10;99.90;;;;;;5049784;28;20224;-71
2023/06/28 06:41:07;;;;;;;7.87;7.17;;;18.20;99.90;;;;;;5050782;28;20725;-71
2023/06/28 06:43:33;;;;;;;7.93;7.23;;;18.20;99.90;;;;;;5051697;28;20210;-71
2023/06/28 06:45:59;;;;;;;6.77;6.23;;;18.20;99.90;;;;;;5071219;28;21273;-71
2023/06/28 06:48:25;;;;;;;8.00;7.43;;;18.30;99.90;;;;;;5065371;28;20171;-71
2023/06/28 06:50:50;;;;;;;8.60;7.63;;;18.50;99.90;;;;;;5066300;28;20179;-71
2023/06/28 06:53:16;;;;;;;7.07;6.57;;;18.70;99.90;;;;;;5051145;28;20187;-71
2023/06/28 06:55:41;;;;;;;6.70;6.20;;;18.80;99.90;;;;;;5051171;28;20171;-71
2023/06/28 06:58:07;;;;;;;11.10;10.40;;;18.80;99.90;;;;;;5051256;28;20170;-72
2023/06/28 07:00:33;;;;;;;580.20;175.67;;;18.80;99.90;;;;;;5051007;28;20202;-70
2023/06/28 07:02:58;;;;;;;5.73;5.37;;;18.80;99.90;;;;;;5055207;28;20215;-69
2023/06/28 07:05:24;;;;;;;11.83;8.90;;;18.90;99.90;;;;;;5051234;28;20167;-70
2023/06/28 07:07:49;;;;;;;5.00;4.43;;;19.00;99.90;;;;;;5049706;28;20171;-70
2023/06/28 07:10:15;;;;;;;6.33;5.73;;;19.00;99.90;;;;;;5051104;28;20169;-69
2023/06/28 07:12:41;;;;;;;6.63;5.53;;;19.00;99.90;;;;;;5064550;28;20563;-69
2023/06/28 07:15:07;;;;;;;7.07;6.37;;;19.10;99.90;;;;;;5070987;28;20170;-69
2023/06/28 07:17:32;;;;;;;10.00;9.27;;;19.10;99.90;;;;;;5071142;28;20179;-70
2023/06/28 07:19:58;;;;;;;7.80;6.93;;;19.00;99.90;;;;;;5071015;28;20170;-69
2023/06/28 07:22:24;;;;;;;7.97;7.27;;;19.00;99.90;;;;;;5069343;28;20244;-69
2023/06/28 07:24:49;;;;;;;6.63;5.83;;;19.00;99.90;;;;;;5067560;28;20563;-69
2023/06/28 07:27:15;;;;;;;7.40;6.00;;;19.20;99.90;;;;;;5070886;28;20660;-69
2023/06/28 07:29:40;;;;;;;8.55;5.78;;;19.40;99.90;;;;;;5070983;28;20170;-69
2023/06/28 07:32:06;;;;;;;11.10;5.73;;;19.50;99.90;;;;;;5070683;28;20194;-71
2023/06/28 07:34:32;;;;;;;6.63;6.13;;;19.60;99.90;;;;;;5070485;28;20181;-70
2023/06/28 07:36:58;;;;;;;7.88;5.07;;;19.70;99.90;;;;;;5070717;28;20171;-71
2023/06/28 07:39:23;;;;;;;5.07;4.30;;;19.90;99.90;;;;;;5063172;28;20716;-70
2023/06/28 07:41:49;;;;;;;5.27;4.60;;;20.10;99.90;;;;;;5049311;28;20672;-70
2023/06/28 07:44:14;;;;;;;5.82;3.85;;;20.30;99.90;;;;;;5050640;28;20249;-71
2023/06/28 07:46:40;;;;;;;4.65;3.78;;;20.30;99.90;;;;;;5050960;28;20182;-71
2023/06/28 07:49:05;;;;;;;4.47;4.07;;;20.40;99.90;;;;;;5050633;28;20170;-70
2023/06/28 07:51:31;;;;;;;5.82;5.38;;;20.30;99.90;;;;;;5050635;28;20677;-70
2023/06/28 07:53:56;;;;;;;7.45;4.80;;;20.40;99.90;;;;;;5053453;28;20205;-69
2023/06/28 07:56:22;;;;;;;6.32;4.55;;;20.60;99.90;;;;;;5053031;28;20667;-70
2023/06/28 07:58:48;;;;;;;5.35;4.38;;;20.80;99.90;;;;;;5054368;28;20182;-70
2023/06/28 08:01:15;;;;;;;6.55;5.35;;;21.10;99.90;;;;;;5054185;28;20178;-70
2023/06/28 08:03:40;;;;;;;4.38;4.00;;;21.30;99.90;;;;;;5052502;28;20206;-70
2023/06/28 08:06:06;;;;;;;3.70;3.40;;;21.50;99.90;;;;;;5054123;28;20171;-70
2023/06/28 08:08:32;;;;;;;4.95;3.40;;;21.60;99.90;;;;;;5054961;28;20232;-70
2023/06/28 08:10:57;;;;;;;5.53;4.93;;;21.90;99.90;;;;;;5053721;28;20182;-70
2023/06/28 08:13:23;;;;;;;7.25;4.75;;;22.10;99.90;;;;;;5052356;28;20190;-70
2023/06/28 08:15:48;;;;;;;3.90;3.60;;;22.20;99.90;;;;;;5053753;28;20182;-70
2023/06/28 08:18:16;;;;;;;4.13;3.70;;;22.30;99.90;;;;;;5053794;28;20185;-70
2023/06/28 08:20:44;;;;;;;6.22;3.63;;;22.20;99.90;;;;;;5053916;28;20178;-70
2023/06/28 08:23:10;;;;;;;3.88;3.40;;;22.20;99.90;;;;;;5053407;28;20198;-69
2023/06/28 08:25:35;;;;;;;4.40;4.07;;;22.20;99.90;;;;;;5053885;28;20171;-69
2023/06/28 08:28:01;;;;;;;5.68;3.60;;;22.30;99.90;;;;;;5052226;28;20568;-70
2023/06/28 08:30:26;;;;;;;6.80;3.70;;;22.30;99.90;;;;;;5052261;28;20198;-70
2023/06/28 08:32:52;;;;;;;3.95;3.60;;;22.30;99.90;;;;;;5053042;28;20206;-69
2023/06/28 08:35:18;;;;;;;5.30;3.55;;;22.10;99.90;;;;;;5064823;28;20261;-69
2023/06/28 08:37:43;;;;;;;4.53;3.72;;;21.90;99.90;;;;;;5066094;28;20545;-69
2023/06/28 08:40:10;;;;;;;3.92;3.63;;;21.70;99.90;;;;;;5053366;28;20263;-70
2023/06/28 08:42:40;;;;;;;4.63;4.13;;;21.50;99.90;;;;;;5052678;28;20194;-70
2023/06/28 08:45:06;;;;;;;7.47;6.85;;;21.40;99.90;;;;;;5053171;28;20646;-70
2023/06/28 08:47:32;;;;;;;6.28;5.88;;;21.50;99.90;;;;;;5053286;28;20175;-70
2023/06/28 08:49:58;;;;;;;5.05;4.57;;;21.60;99.90;;;;;;5051698;28;20606;-71
2023/06/28 08:52:25;;;;;;;4.85;4.45;;;21.60;99.90;;;;;;5052764;28;20187;-70
2023/06/28 08:54:52;;;;;;;4.72;4.30;;;21.60;99.90;;;;;;5052614;28;20186;-70
2023/06/28 08:57:19;;;;;;;3.55;3.35;;;21.50;99.90;;;;;;5053058;28;20309;-71
2023/06/28 08:59:45;;;;;;;3.53;3.30;;;21.50;99.90;;;;;;5052738;28;20167;-70
2023/06/28 09:02:15;;;;;;;7.20;4.07;;;21.50;99.90;;;;;;5051478;28;20492;-71
2023/06/28 09:04:41;;;;;;;4.38;3.42;;;21.40;99.90;;;;;;5052100;28;20199;-71
2023/06/28 09:07:07;;;;;;;7.70;3.67;;;21.40;99.90;;;;;;5052891;28;20183;-71
2023/06/28 09:09:34;;;;;;;4.07;3.47;;;21.30;99.90;;;;;;5052759;28;20194;-70
2023/06/28 09:12:01;;;;;;;3.92;3.70;;;21.40;99.90;;;;;;5052669;28;20197;-70
2023/06/28 09:14:27;;;;;;;3.63;3.42;;;21.30;99.90;;;;;;5052232;28;20177;-70
2023/06/28 09:16:53;;;;;;;3.90;3.60;;;21.30;99.90;;;;;;5052333;28;20249;-70
2023/06/28 09:19:19;;;;;;;4.18;3.88;;;21.40;99.90;;;;;;5052440;28;20693;-70
2023/06/28 09:21:45;;;;;;;7.57;3.88;;;21.50;99.90;;;;;;5052222;28;20270;-71
2023/06/28 09:24:12;;;;;;;5.00;4.35;;;21.70;99.90;;;;;;5052453;28;20286;-71
2023/06/28 09:26:40;;;;;;;5.35;3.65;;;21.90;99.90;;;;;;5052511;28;20741;-71
2023/06/28 09:29:12;;;;;;;4.15;3.65;;;21.90;99.90;;;;;;5051033;28;20179;-70
2023/06/28 09:31:43;;;;;;;4.25;3.78;;;21.90;99.90;;;;;;5052476;28;20265;-69
2023/06/28 09:34:10;;;;;;;4.25;3.95;;;21.90;99.90;;;;;;5050780;28;20236;-70
2023/06/28 09:36:37;;;;;;;4.00;3.42;;;21.80;99.90;;;;;;5050837;28;20224;-70
2023/06/28 09:39:07;;;;;;;4.50;3.55;;;21.70;99.90;;;;;;5052199;28;20178;-70
2023/06/28 09:41:41;;;;;;;5.70;3.75;;;21.70;99.90;;;;;;5050800;28;20198;-69
2023/06/28 09:44:11;;;;;;;3.42;3.00;;;21.50;99.90;;;;;;5051689;28;20269;-70
2023/06/28 09:46:46;;;;;;;6.40;4.60;;;21.30;99.90;;;;;;5051724;28;20167;-70
2023/06/28 09:49:22;;;;;;;4.32;4.00;;;21.10;99.90;;;;;;5050799;28;20369;-70
2023/06/28 09:52:03;;;;;;;5.47;4.55;;;21.00;99.90;;;;;;5051659;28;20658;-71
2023/06/28 09:54:30;;;;;;;8.05;5.25;;;21.10;99.90;;;;;;5051778;28;20723;-71
2023/06/28 09:56:56;;;;;;;4.47;3.60;;;21.20;99.90;;;;;;5050218;28;20177;-69
2023/06/28 09:59:23;;;;;;;9.57;4.32;;;21.40;99.90;;;;;;5052670;28;20179;-70
2023/06/28 10:01:51;;;;;;;3.20;3.05;;;21.50;99.90;;;;;;5055367;28;20198;-70
2023/06/28 10:04:19;;;;;;;5.10;4.60;;;21.60;99.90;;;;;;5061789;28;20203;-70
2023/06/28 10:06:45;;;;;;;3.85;3.50;;;21.80;99.90;;;;;;5049987;28;20202;-71
2023/06/28 10:09:16;;;;;;;4.97;4.22;;;21.80;99.90;;;;;;5051617;28;20552;-71
2023/06/28 10:11:44;;;;;;;4.03;3.70;;;22.00;99.90;;;;;;5050125;28;20187;-70
2023/06/28 10:14:11;;;;;;;6.78;3.30;;;22.20;99.90;;;;;;5049074;28;20179;-70
2023/06/28 10:16:37;;;;;;;4.93;3.28;;;22.40;99.90;;;;;;5050906;28;20175;-69
2023/06/28 10:19:03;;;;;;;4.15;3.45;;;22.70;99.90;;;;;;5064183;28;20261;-70
2023/06/28 10:21:30;;;;;;;3.72;3.30;;;23.00;99.90;;;;;;5070081;28;20198;-70
2023/06/28 10:23:56;;;;;;;5.90;4.45;;;23.10;99.90;;;;;;5070557;28;20198;-71
2023/06/28 10:26:22;;;;;;;3.70;3.40;;;23.50;99.90;;;;;;5071277;28;20672;-71
2023/06/28 10:28:49;;;;;;;3.78;3.47;;;23.90;99.90;;;;;;5071158;28;20178;-71
2023/06/28 10:31:15;;;;;;;4.30;3.17;;;24.10;99.90;;;;;;5071395;28;20212;-70
2023/06/28 10:33:41;;;;;;;3.40;3.10;;;24.10;99.90;;;;;;5069709;28;20296;-69
2023/06/28 10:36:07;;;;;;;3.85;3.47;;;24.20;99.90;;;;;;5069920;28;20213;-69
2023/06/28 10:38:38;;;;;;;5.40;3.65;;;24.30;99.90;;;;;;5053800;28;20205;-70
2023/06/28 10:41:07;;;;;;;4.57;4.10;;;24.30;99.90;;;;;;5051013;28;20174;-70
2023/06/28 10:43:33;;;;;;;9.02;4.20;;;24.40;99.90;;;;;;5050974;28;20202;-70
2023/06/28 10:46:00;;;;;;;4.93;3.53;;;24.50;99.90;;;;;;5050677;28;20221;-71
2023/06/28 10:48:31;;;;;;;4.57;3.60;;;24.40;99.90;;;;;;5051627;28;20166;-70
2023/06/28 10:51:05;;;;;;;6.88;3.65;;;24.30;99.90;;;;;;5069389;28;20204;-71
2023/06/28 10:53:31;;;;;;;10.02;3.72;;;24.10;99.90;;;;;;5070815;28;20340;-70
2023/06/28 10:56:10;;;;;;;4.03;3.72;;;24.20;99.90;;;;;;5071207;28;20721;-70
2023/06/28 10:58:38;;;;;;;4.75;3.53;;;24.20;99.90;;;;;;5070963;28;20170;-70
2023/06/28 11:01:06;;;;;;;6.72;3.40;;;24.20;99.90;;;;;;5066550;28;20618;-71
2023/06/28 11:03:38;;;;;;;3.67;3.38;;;24.20;99.90;;;;;;5088418;23;20217;-67
2023/06/28 11:06:04;;;;;;;4.82;3.92;;;24.40;99.90;;;;;;5080108;28;20162;-67
2023/06/28 11:08:40;;;;;;;5.88;3.70;;;24.40;99.90;;;;;;5091232;28;20187;-66
2023/06/28 11:11:20;;;;;;;4.65;3.63;;;24.40;99.90;;;;;;5091139;28;20638;-67
2023/06/28 11:13:48;;;;;;;4.00;3.55;;;24.30;99.90;;;;;;5089314;28;20691;-67
2023/06/28 11:16:21;;;;;;;5.30;4.00;;;24.20;99.90;;;;;;5089985;28;20226;-67
2023/06/28 11:18:48;;;;;;;10.20;3.92;;;24.30;99.90;;;;;;5070496;28;20228;-67
2023/06/28 11:21:15;;;;;;;3.65;3.35;;;24.30;99.90;;;;;;5070908;28;20304;-67
2023/06/28 11:23:43;;;;;;;8.05;3.95;;;24.40;99.90;;;;;;5070172;28;20279;-67
2023/06/28 11:26:13;;;;;;;3.88;3.55;;;24.50;99.90;;;;;;5071369;28;20253;-67
2023/06/28 11:28:48;;;;;;;4.80;4.35;;;24.50;99.90;;;;;;5076215;28;20517;-66
2023/06/28 11:31:16;;;;;;;4.45;3.92;;;24.60;99.90;;;;;;5094831;28;20169;-67
2023/06/28 11:33:43;;;;;;;5.35;4.03;;;24.60;99.90;;;;;;5094326;28;20672;-67
2023/06/28 11:36:10;;;;;;;5.20;4.00;;;24.60;99.90;;;;;;5094834;28;20181;-67
2023/06/28 11:38:36;;;;;;;5.60;3.50;;;24.50;99.90;;;;;;5094911;28;20536;-66
2023/06/28 11:41:02;;;;;;;6.10;4.10;;;24.50;99.90;;;;;;5094390;28;20203;-67
2023/06/28 11:43:27;;;;;;;4.88;3.45;;;24.70;99.90;;;;;;5094419;28;20205;-67
2023/06/28 11:45:53;;;;;;;5.93;3.65;;;25.00;99.90;;;;;;5094581;28;20169;-67
2023/06/28 11:48:22;;;;;;;4.72;3.70;;;25.30;99.90;;;;;;5095080;28;20170;-66
2023/06/28 11:51:00;;;;;;;4.47;3.53;;;25.40;99.90;;;;;;5094303;28;20296;-67
2023/06/28 11:53:27;;;;;;;5.03;4.20;;;25.20;99.90;;;;;;5088451;28;20201;-66
2023/06/28 11:55:54;;;;;;;5.28;3.97;;;25.30;99.90;;;;;;5074005;28;20303;-67
2023/06/28 11:58:34;;;;;;;6.75;4.10;;;25.40;99.90;;;;;;5074180;28;20242;-67
2023/06/28 12:01:00;;;;;;;6.10;4.40;;;25.50;99.90;;;;;;5078286;28;20204;-67
2023/06/28 12:03:37;;;;;;;5.18;4.38;;;25.90;99.90;;;;;;5093527;28;20237;-67
2023/06/28 12:06:06;;;;;;;5.05;3.63;;;26.20;99.90;;;;;;5094289;28;20196;-66
2023/06/28 12:08:36;;;;;;;6.32;4.38;;;26.50;99.90;;;;;;5094561;28;20503;-67
2023/06/28 12:11:09;;;;;;;4.45;4.05;;;26.40;99.90;;;;;;5094129;28;20882;-67
2023/06/28 12:13:34;;;;;;;7.88;4.50;;;26.50;99.90;;;;;;5081761;28;20281;-67
2023/06/28 12:16:13;;;;;;;4.30;3.90;;;26.70;99.90;;;;;;5073789;28;20261;-67
2023/06/28 12:18:59;;;;;;;5.85;5.13;;;26.90;99.90;;;;;;5077462;28;20292;-67
2023/06/28 12:21:26;;;;;;;8.93;5.05;;;27.30;99.90;;;;;;5080035;28;20177;-66
2023/06/28 12:23:53;;;;;;;4.47;4.18;;;27.50;99.90;;;;;;5079132;28;20708;-67
2023/06/28 12:26:22;;;;;;;4.63;3.97;;;27.80;99.90;;;;;;5073752;28;20178;-67
2023/06/28 12:28:51;;;;;;;6.72;3.75;;;28.00;99.90;;;;;;5073296;28;20188;-67
2023/06/28 12:31:17;;;;;;;6.88;4.57;;;27.70;99.90;;;;;;5087575;28;20185;-67
2023/06/28 12:33:43;;;;;;;7.60;5.03;;;27.70;99.90;;;;;;5079311;28;20285;-67
2023/06/28 12:36:15;;;;;;;6.35;4.97;;;27.50;99.90;;;;;;5092367;28;20265;-67
2023/06/28 12:38:45;;;;;;;11.63;6.18;;;27.50;99.90;;;;;;5091297;28;20542;-66
2023/06/28 12:41:15;;;;;;;8.18;4.85;;;27.30;99.90;;;;;;5093436;28;20509;-66
2023/06/28 12:43:41;;;;;;;5.93;5.40;;;27.00;99.90;;;;;;5091647;28;20228;-67